Caledonia, MI

7:04 PM EDT on July 06, 2015 (GMT -0400)
Trudeau Weather Station - Green Lake | | Change Station
CLOSE
Current Station
Personal Weather Station
Location: Caledonia, MI
Elevation: 814 ft
Nearby Weather Stations

Elev 814 ft 42.75 °N, 85.61 °W | Updated 23 seconds ago

Mostly Cloudy
Mostly Cloudy
81.0 °F
Feels Like 84 °F
N
2.9
Wind Variable Wind from West
Gusts 8.0 mph

Today
High -- | Low -- °F
--% Chance of Precip.
Yesterday
High -- | Low -- °F
Precip. -- in
6:10 AM 9:23 PM
Waning Gibbous, 71% visible
Pressure 29.87 in
Visibility 6.0 miles
Clouds Few 4600 ft
Mostly Cloudy 23000 ft
Heat Index 84 °F
Dew Point 67 °F
Humidity 63%
Rainfall 0.00 in
Snow Depth Not available.
UV 1 out of 12
Pollen 5.00 out of 12
Air Quality Not available.
Flu Activity Not available.
METAR KGRR 062253Z 17010KT 6SM HZ FEW046 BKN230 28/19 A2988 RMK AO2 SLP114 T02780189

More Conditions Fewer Conditions

Pressure 29.87 in
Visibility 6.0 miles
Clouds Few 4600 ft
Mostly Cloudy 23000 ft
Heat Index 84 °F
Dew Point 67 °F
Humidity 63%
Rainfall 0.00 in
Snow Depth Not available.
UV 1 out of 12
Pollen 5.00 out of 12
Air Quality Not available.
Flu Activity Not available.
METAR KGRR 062253Z 17010KT 6SM HZ FEW046 BKN230 28/19 A2988 RMK AO2 SLP114 T02780189

More Conditions Fewer Conditions

10-Day Weather Forecast

×

Almanac

Astronomy

Jul. 06, 2015 Rise Set
Actual Time
Civil Twilight
Nautical Twilight
Astronomical Twilight
Moon
Length of Visible Light
Length of Day
Tomorrow will be .
, % of the Moon is Illuminated

Today's Extremes

State Highs State Lows

Community

WunderPhotos

Upload Photos

1,835,670 photos uploaded!

WunderBlogs® & News

Nearby

Air Quality

  Air Quality AQ Index Pollutant
Not available.

Snow Depth

Station Depth Elevation

Earthquake Activity

City Distance Mag. Time & Date
Minimum magnitude displayed is 2.5.

Coastal Water Temperatures

Place Temperature

Stations

Nearby Weather Stations

Station Location Temp. Windchill Dew Point Humidity Wind Precip. Elev Updated Type